Time;durP1;ratioP1;P1;durP2;ratioP2;P2;SDS_P1;SDS_P2;PMS_P1;PMS_P2;Temp;Humidity;BMP_temperature;BMP_pressure;BME280_temperature;BME280_humidity;BME280_pressure;Samples;Min_cycle;Max_cycle;Signal;HPM_P1;HPM_P2
2021/11/26 00:01:32;;;;;;;20.67;12.02;;;;;;;;;;5026575;28;20079;-70
2021/11/26 00:03:59;;;;;;;16.77;10.98;;;;;;;;;;5032122;28;20395;-70
2021/11/26 00:06:26;;;;;;;18.58;12.07;;;;;;;;;;5013919;28;20030;-71
2021/11/26 00:08:52;;;;;;;19.85;12.93;;;;;;;;;;5013853;28;20030;-70
2021/11/26 00:11:18;;;;;;;18.52;12.73;;;;;;;;;;5014096;28;20072;-71
2021/11/26 00:13:49;;;;;;;17.73;12.27;;;;;;;;;;5013382;28;20439;-70
2021/11/26 00:16:28;;;;;;;18.52;12.75;;;;;;;;;;5015429;28;20102;-71
2021/11/26 00:18:58;;;;;;;19.38;12.68;;;;;;;;;;5033469;28;20021;-72
2021/11/26 00:21:24;;;;;;;19.63;13.60;;;;;;;;;;5033415;28;20509;-71
2021/11/26 00:23:50;;;;;;;19.67;13.02;;;;;;;;;;5033172;28;20026;-70
2021/11/26 00:26:16;;;;;;;19.65;13.45;;;;;;;;;;5031976;28;20038;-70
2021/11/26 00:28:42;;;;;;;20.10;14.63;;;;;;;;;;5031853;28;20287;-71
2021/11/26 00:31:08;;;;;;;19.60;12.85;;;;;;;;;;5033151;28;20129;-72
2021/11/26 00:33:34;;;;;;;21.15;13.80;;;;;;;;;;5032808;28;20026;-72
2021/11/26 00:36:00;;;;;;;19.45;13.45;;;;;;;;;;5033335;28;20052;-70
2021/11/26 00:38:26;;;;;;;18.13;12.98;;;;;;;;;;5033061;28;20434;-70
2021/11/26 00:40:53;;;;;;;23.42;13.68;;;;;;;;;;5031900;28;20033;-70
2021/11/26 00:43:19;;;;;;;22.10;14.40;;;;;;;;;;5032390;28;20037;-70
2021/11/26 00:45:45;;;;;;;19.25;13.15;;;;;;;;;;5032874;28;20510;-71
2021/11/26 00:48:11;;;;;;;20.00;13.63;;;;;;;;;;5032840;28;20029;-71
2021/11/26 00:50:37;;;;;;;21.02;13.48;;;;;;;;;;5032874;28;20033;-72
2021/11/26 00:53:04;;;;;;;19.23;13.02;;;;;;;;;;5032372;28;20439;-72
2021/11/26 00:55:30;;;;;;;22.60;12.73;;;;;;;;;;5032839;28;20026;-69
2021/11/26 00:57:56;;;;;;;19.25;13.50;;;;;;;;;;5032453;28;20025;-70
2021/11/26 01:00:22;;;;;;;20.02;14.32;;;;;;;;;;5032827;28;20025;-70
2021/11/26 01:02:48;;;;;;;19.58;13.88;;;;;;;;;;5030975;28;20025;-68
2021/11/26 01:05:15;;;;;;;20.88;13.75;;;;;;;;;;5031157;28;20032;-70
2021/11/26 01:07:42;;;;;;;20.10;14.48;;;;;;;;;;5031993;28;20025;-70
2021/11/26 01:10:10;;;;;;;21.63;14.05;;;;;;;;;;5032400;28;20057;-72
2021/11/26 01:12:36;;;;;;;22.60;13.82;;;;;;;;;;5032132;28;20028;-72
2021/11/26 01:15:03;;;;;;;21.50;14.30;;;;;;;;;;5032147;28;20053;-71
2021/11/26 01:17:29;;;;;;;20.45;14.02;;;;;;;;;;5032316;28;20101;-70
2021/11/26 01:19:55;;;;;;;22.58;14.52;;;;;;;;;;5032285;28;20022;-71
2021/11/26 01:22:21;;;;;;;21.05;14.90;;;;;;;;;;5030944;28;20036;-71
2021/11/26 01:24:47;;;;;;;24.20;15.63;;;;;;;;;;5032152;28;20029;-70
2021/11/26 01:27:13;;;;;;;24.55;16.02;;;;;;;;;;5031969;28;20502;-70
2021/11/26 01:29:39;;;;;;;23.63;15.85;;;;;;;;;;5031938;28;20024;-70
2021/11/26 01:32:06;;;;;;;26.25;15.18;;;;;;;;;;5030896;28;20026;-70
2021/11/26 01:34:32;;;;;;;23.33;16.00;;;;;;;;;;5031798;28;20072;-70
2021/11/26 01:36:58;;;;;;;25.05;15.48;;;;;;;;;;5032011;28;20025;-70
2021/11/26 01:39:24;;;;;;;22.73;15.27;;;;;;;;;;5032096;28;20449;-70
2021/11/26 01:41:52;;;;;;;22.25;15.70;;;;;;;;;;5031640;28;20025;-70
2021/11/26 01:44:18;;;;;;;24.02;15.10;;;;;;;;;;5030438;28;20053;-69
2021/11/26 01:46:45;;;;;;;23.38;14.65;;;;;;;;;;5031889;28;20034;-70
2021/11/26 01:49:12;;;;;;;20.45;14.88;;;;;;;;;;5031823;28;20032;-70
2021/11/26 01:51:38;;;;;;;25.02;15.18;;;;;;;;;;5030535;28;20028;-70
2021/11/26 01:54:05;;;;;;;20.20;14.18;;;;;;;;;;5031515;28;20421;-70
2021/11/26 01:56:31;;;;;;;24.27;14.32;;;;;;;;;;5031689;28;20029;-70
2021/11/26 01:58:58;;;;;;;24.60;14.77;;;;;;;;;;5032043;28;20033;-70
2021/11/26 02:01:24;;;;;;;29.90;15.25;;;;;;;;;;5031816;28;20029;-71
2021/11/26 02:03:51;;;;;;;27.30;16.20;;;;;;;;;;5025817;28;20394;-70
2021/11/26 02:06:17;;;;;;;20.73;14.02;;;;;;;;;;5031702;28;20051;-70
2021/11/26 02:08:43;;;;;;;23.15;15.10;;;;;;;;;;5031696;28;20040;-70
2021/11/26 02:11:09;;;;;;;22.17;14.25;;;;;;;;;;5032463;28;20144;-70
2021/11/26 02:13:35;;;;;;;18.75;13.07;;;;;;;;;;5032146;28;20487;-70
2021/11/26 02:16:03;;;;;;;21.33;15.07;;;;;;;;;;5032589;28;20105;-70
2021/11/26 02:18:29;;;;;;;23.85;14.98;;;;;;;;;;5032312;28;20449;-70
2021/11/26 02:20:55;;;;;;;23.58;15.02;;;;;;;;;;5033583;28;20101;-70
2021/11/26 02:23:21;;;;;;;21.98;14.32;;;;;;;;;;5035140;28;20026;-70
2021/11/26 02:25:47;;;;;;;23.50;15.60;;;;;;;;;;5035465;28;20571;-70
2021/11/26 02:28:14;;;;;;;22.75;15.20;;;;;;;;;;5034114;28;20032;-71
2021/11/26 02:30:40;;;;;;;24.63;15.75;;;;;;;;;;5035513;28;20135;-70
2021/11/26 02:33:11;;;;;;;24.73;15.55;;;;;;;;;;5035314;28;20022;-70
2021/11/26 02:35:37;;;;;;;23.77;16.93;;;;;;;;;;5037990;28;20483;-70
2021/11/26 02:38:05;;;;;;;23.05;16.00;;;;;;;;;;5036841;28;20033;-70
2021/11/26 02:40:32;;;;;;;23.83;16.23;;;;;;;;;;5038031;28;20025;-70
2021/11/26 02:42:58;;;;;;;24.25;16.55;;;;;;;;;;5037112;28;20052;-70
2021/11/26 02:45:25;;;;;;;29.88;16.05;;;;;;;;;;5037285;28;20029;-69
2021/11/26 02:47:51;;;;;;;25.80;16.50;;;;;;;;;;5035117;28;20033;-69
2021/11/26 02:50:18;;;;;;;32.72;14.93;;;;;;;;;;5033819;28;20018;-69
2021/11/26 02:52:44;;;;;;;28.52;15.57;;;;;;;;;;5034772;28;20100;-68
2021/11/26 02:55:13;;;;;;;24.55;15.95;;;;;;;;;;5035077;28;20017;-70
2021/11/26 02:57:39;;;;;;;24.45;16.42;;;;;;;;;;5035219;28;20044;-69
2021/11/26 03:00:06;;;;;;;26.38;16.20;;;;;;;;;;5034918;28;20095;-69
2021/11/26 03:02:32;;;;;;;23.27;15.43;;;;;;;;;;5033502;28;20483;-69
2021/11/26 03:04:58;;;;;;;27.20;14.90;;;;;;;;;;5034656;28;20033;-69
2021/11/26 03:07:24;;;;;;;25.15;16.27;;;;;;;;;;5033456;28;20506;-70
2021/11/26 03:09:50;;;;;;;21.75;14.40;;;;;;;;;;5033235;28;20051;-69
2021/11/26 03:12:16;;;;;;;25.20;15.73;;;;;;;;;;5034801;28;20028;-69
2021/11/26 03:14:43;;;;;;;25.75;16.50;;;;;;;;;;5033030;28;20029;-70
2021/11/26 03:17:09;;;;;;;21.92;14.63;;;;;;;;;;5034457;28;20022;-70
2021/11/26 03:19:35;;;;;;;25.75;15.65;;;;;;;;;;5034347;28;20030;-70
2021/11/26 03:22:01;;;;;;;20.60;15.02;;;;;;;;;;5034298;28;20075;-70
2021/11/26 03:24:27;;;;;;;21.48;14.35;;;;;;;;;;5032663;28;20179;-70
2021/11/26 03:26:53;;;;;;;24.60;14.55;;;;;;;;;;5034222;28;20037;-70
2021/11/26 03:29:19;;;;;;;23.77;14.77;;;;;;;;;;5033010;28;20040;-70
2021/11/26 03:31:45;;;;;;;24.83;16.15;;;;;;;;;;5032738;28;20017;-69
2021/11/26 03:34:11;;;;;;;23.77;14.63;;;;;;;;;;5033921;28;20368;-70
2021/11/26 03:36:37;;;;;;;20.45;13.60;;;;;;;;;;5034382;28;20021;-70
2021/11/26 03:39:04;;;;;;;22.60;14.48;;;;;;;;;;5034149;28;20040;-70
2021/11/26 03:41:30;;;;;;;21.00;14.35;;;;;;;;;;5032987;28;20026;-70
2021/11/26 03:43:56;;;;;;;24.15;14.77;;;;;;;;;;5048237;23;20057;-71
2021/11/26 03:46:22;;;;;;;20.90;14.23;;;;;;;;;;5034118;28;20529;-71
2021/11/26 03:48:48;;;;;;;23.35;14.38;;;;;;;;;;5034036;28;20467;-70
2021/11/26 03:51:15;;;;;;;23.35;14.60;;;;;;;;;;5034186;28;20017;-71
2021/11/26 03:53:41;;;;;;;22.13;14.45;;;;;;;;;;5033569;28;20033;-71
2021/11/26 03:56:07;;;;;;;24.77;14.80;;;;;;;;;;5032552;28;20384;-71
2021/11/26 03:58:33;;;;;;;26.65;15.52;;;;;;;;;;5026749;28;20033;-71
2021/11/26 04:01:00;;;;;;;27.50;16.77;;;;;;;;;;5030914;28;20033;-70
2021/11/26 04:03:26;;;;;;;23.92;15.02;;;;;;;;;;5030725;28;20026;-71
2021/11/26 04:05:52;;;;;;;25.95;15.18;;;;;;;;;;5033665;28;20028;-71
2021/11/26 04:08:18;;;;;;;23.90;14.88;;;;;;;;;;5033534;28;20067;-71
2021/11/26 04:10:44;;;;;;;22.83;14.00;;;;;;;;;;5033585;28;20021;-71
2021/11/26 04:13:10;;;;;;;25.10;15.77;;;;;;;;;;5031955;28;20021;-71
2021/11/26 04:15:39;;;;;;;23.27;15.45;;;;;;;;;;5033433;28;20499;-71
2021/11/26 04:18:06;;;;;;;28.60;17.15;;;;;;;;;;5032261;28;20037;-71
2021/11/26 04:20:33;;;;;;;26.73;15.93;;;;;;;;;;5033318;28;20043;-71
2021/11/26 04:22:59;;;;;;;28.35;16.08;;;;;;;;;;5032996;28;20029;-71
2021/11/26 04:25:26;;;;;;;25.30;15.68;;;;;;;;;;5033204;28;20029;-71
2021/11/26 04:27:52;;;;;;;27.02;16.85;;;;;;;;;;5031763;28;20079;-71
2021/11/26 04:30:20;;;;;;;23.27;15.10;;;;;;;;;;5033166;28;20035;-71
2021/11/26 04:32:47;;;;;;;34.47;17.42;;;;;;;;;;5033085;28;20100;-72
2021/11/26 04:35:13;;;;;;;25.65;16.73;;;;;;;;;;5032495;28;20018;-71
2021/11/26 04:37:39;;;;;;;27.83;16.95;;;;;;;;;;5033521;28;20021;-71
2021/11/26 04:40:08;;;;;;;29.30;16.45;;;;;;;;;;5033431;28;20033;-71
2021/11/26 04:42:34;;;;;;;40.33;17.67;;;;;;;;;;5033091;28;20082;-71
2021/11/26 04:45:00;;;;;;;30.75;15.98;;;;;;;;;;5032960;28;20406;-71
2021/11/26 04:47:26;;;;;;;29.38;16.67;;;;;;;;;;5032957;28;20442;-71
2021/11/26 04:49:52;;;;;;;26.73;15.10;;;;;;;;;;5033002;28;20053;-71
2021/11/26 04:52:19;;;;;;;28.77;16.08;;;;;;;;;;5032834;28;20064;-72
2021/11/26 04:54:45;;;;;;;29.05;17.02;;;;;;;;;;5033106;28;20021;-73
2021/11/26 04:57:11;;;;;;;30.30;16.25;;;;;;;;;;5032810;28;20467;-71
2021/11/26 04:59:37;;;;;;;28.85;16.88;;;;;;;;;;5032728;28;20037;-71
2021/11/26 05:02:03;;;;;;;25.08;15.98;;;;;;;;;;5032645;28;20427;-70
2021/11/26 05:04:29;;;;;;;29.38;16.95;;;;;;;;;;5032538;28;20036;-70
2021/11/26 05:06:55;;;;;;;27.83;14.73;;;;;;;;;;5032426;28;20104;-70
2021/11/26 05:09:22;;;;;;;28.38;15.93;;;;;;;;;;5032641;28;20522;-70
2021/11/26 05:11:48;;;;;;;24.75;15.93;;;;;;;;;;5032315;28;20463;-71
2021/11/26 05:14:18;;;;;;;24.90;15.13;;;;;;;;;;5032060;28;20143;-71
2021/11/26 05:16:45;;;;;;;20.77;12.03;;;;;;;;;;5032340;28;20018;-71
2021/11/26 05:19:11;;;;;;;25.25;13.88;;;;;;;;;;5032317;28;20029;-71
2021/11/26 05:21:37;;;;;;;23.48;14.70;;;;;;;;;;5032401;28;20367;-69
2021/11/26 05:24:03;;;;;;;24.13;15.30;;;;;;;;;;5030505;28;20037;-71
2021/11/26 05:26:29;;;;;;;23.60;13.90;;;;;;;;;;5032216;28;20112;-72
2021/11/26 05:28:55;;;;;;;25.65;14.77;;;;;;;;;;5031971;28;20064;-70
2021/11/26 05:31:21;;;;;;;24.95;14.18;;;;;;;;;;5031947;28;20562;-71
2021/11/26 05:33:48;;;;;;;25.60;15.95;;;;;;;;;;5031963;28;20025;-70
2021/11/26 05:36:14;;;;;;;22.02;14.68;;;;;;;;;;5032367;28;20048;-72
2021/11/26 05:38:40;;;;;;;25.00;15.68;;;;;;;;;;5032052;28;20026;-71
2021/11/26 05:41:07;;;;;;;26.17;15.38;;;;;;;;;;5031938;28;20035;-71
2021/11/26 05:43:33;;;;;;;24.33;14.70;;;;;;;;;;5030375;28;20033;-71
2021/11/26 05:45:59;;;;;;;21.92;14.60;;;;;;;;;;5032580;28;20394;-71
2021/11/26 05:48:25;;;;;;;21.58;13.80;;;;;;;;;;5032172;28;20135;-72
2021/11/26 05:50:51;;;;;;;28.33;15.25;;;;;;;;;;5032670;28;20022;-70
2021/11/26 05:53:17;;;;;;;24.33;14.90;;;;;;;;;;5032383;28;20029;-71
2021/11/26 05:55:43;;;;;;;22.48;14.00;;;;;;;;;;5033010;28;20018;-71
2021/11/26 05:58:09;;;;;;;22.50;14.38;;;;;;;;;;5036121;28;20025;-71
2021/11/26 06:00:35;;;;;;;22.17;13.77;;;;;;;;;;5030214;28;20376;-69
2021/11/26 06:03:02;;;;;;;27.35;14.40;;;;;;;;;;5035679;28;20025;-71
2021/11/26 06:05:28;;;;;;;24.88;14.77;;;;;;;;;;5034834;28;20079;-72
2021/11/26 06:07:54;;;;;;;26.55;14.63;;;;;;;;;;5032892;28;20033;-71
2021/11/26 06:10:20;;;;;;;24.38;14.90;;;;;;;;;;5031437;28;20460;-72
2021/11/26 06:12:47;;;;;;;23.73;15.00;;;;;;;;;;5031244;28;20108;-69
2021/11/26 06:15:14;;;;;;;29.85;16.20;;;;;;;;;;5031391;28;20022;-71
2021/11/26 06:17:41;;;;;;;33.13;18.45;;;;;;;;;;5030969;28;20026;-70
2021/11/26 06:20:07;;;;;;;31.20;16.80;;;;;;;;;;5030995;28;20029;-70
2021/11/26 06:22:33;;;;;;;24.00;15.40;;;;;;;;;;5031152;28;20028;-68
2021/11/26 06:25:00;;;;;;;32.38;16.70;;;;;;;;;;5031224;28;20399;-69
2021/11/26 06:27:26;;;;;;;28.05;14.93;;;;;;;;;;5031105;28;20079;-68
2021/11/26 06:29:52;;;;;;;27.23;15.95;;;;;;;;;;5031250;28;20448;-68
2021/11/26 06:32:18;;;;;;;22.70;14.95;;;;;;;;;;5030790;28;20103;-70
2021/11/26 06:34:44;;;;;;;26.88;16.20;;;;;;;;;;5030802;28;20022;-68
2021/11/26 06:37:10;;;;;;;25.77;15.55;;;;;;;;;;5029842;28;20470;-71
2021/11/26 06:39:36;;;;;;;24.38;15.27;;;;;;;;;;5031050;28;20029;-67
2021/11/26 06:42:03;;;;;;;25.40;14.35;;;;;;;;;;5030754;28;20029;-68
2021/11/26 06:44:29;;;;;;;26.55;15.52;;;;;;;;;;5030597;28;20034;-68
2021/11/26 06:46:55;;;;;;;23.50;14.77;;;;;;;;;;5031126;28;20501;-71
2021/11/26 06:49:21;;;;;;;30.80;17.38;;;;;;;;;;5031174;28;20029;-68
2021/11/26 06:51:47;;;;;;;28.02;15.55;;;;;;;;;;5031263;28;20540;-70
2021/11/26 06:54:13;;;;;;;27.27;16.13;;;;;;;;;;5030790;28;20483;-71
2021/11/26 06:56:41;;;;;;;27.50;15.48;;;;;;;;;;5030996;28;20033;-69
2021/11/26 06:59:07;;;;;;;23.35;14.13;;;;;;;;;;5029751;28;20083;-67
2021/11/26 07:01:33;;;;;;;23.83;14.05;;;;;;;;;;5031209;28;20026;-71
2021/11/26 07:04:00;;;;;;;24.70;14.38;;;;;;;;;;5029359;28;20022;-67
2021/11/26 07:06:26;;;;;;;26.20;15.57;;;;;;;;;;5031894;28;20087;-71
2021/11/26 07:08:52;;;;;;;27.35;14.48;;;;;;;;;;5034552;28;20022;-68
2021/11/26 07:11:18;;;;;;;24.83;12.88;;;;;;;;;;5034382;28;20491;-71
2021/11/26 07:13:45;;;;;;;19.27;11.93;;;;;;;;;;5034418;28;20437;-68
2021/11/26 07:16:11;;;;;;;23.27;12.55;;;;;;;;;;5034468;28;20025;-71
2021/11/26 07:18:37;;;;;;;26.23;13.02;;;;;;;;;;5034447;28;20075;-73
2021/11/26 07:21:03;;;;;;;24.42;14.07;;;;;;;;;;5034319;28;20406;-73
2021/11/26 07:23:29;;;;;;;22.42;13.07;;;;;;;;;;5034235;28;20557;-75
2021/11/26 07:25:55;;;;;;;23.38;13.32;;;;;;;;;;5035276;28;20029;-72
2021/11/26 07:28:22;;;;;;;21.30;12.30;;;;;;;;;;5034481;28;20049;-70
2021/11/26 07:30:48;;;;;;;21.60;11.68;;;;;;;;;;5033509;28;20022;-71
2021/11/26 07:33:14;;;;;;;22.55;12.45;;;;;;;;;;5033790;28;20109;-71
2021/11/26 07:35:40;;;;;;;19.65;12.57;;;;;;;;;;5035169;28;20052;-71
2021/11/26 07:38:07;;;;;;;23.40;13.20;;;;;;;;;;5034137;28;20025;-72
2021/11/26 07:40:33;;;;;;;23.20;11.88;;;;;;;;;;5034927;28;20380;-71
2021/11/26 07:42:59;;;;;;;24.42;13.10;;;;;;;;;;5034818;28;20033;-71
2021/11/26 07:45:25;;;;;;;20.00;11.23;;;;;;;;;;5035170;28;20056;-71
2021/11/26 07:47:52;;;;;;;18.27;11.52;;;;;;;;;;5039159;28;20031;-69
2021/11/26 07:50:19;;;;;;;18.52;12.45;;;;;;;;;;5039249;28;20021;-71
2021/11/26 07:52:45;;;;;;;19.42;11.88;;;;;;;;;;5035310;28;20491;-69
2021/11/26 07:55:12;;;;;;;19.63;11.80;;;;;;;;;;5033255;28;20036;-71
2021/11/26 07:57:40;;;;;;;19.33;11.77;;;;;;;;;;5038556;28;20021;-71
2021/11/26 08:00:07;;;;;;;22.42;12.38;;;;;;;;;;5035280;28;20477;-70
2021/11/26 08:02:33;;;;;;;22.90;12.88;;;;;;;;;;5030015;28;20107;-68
2021/11/26 08:04:59;;;;;;;22.05;12.50;;;;;;;;;;5015422;28;20077;-72
2021/11/26 08:07:25;;;;;;;17.85;11.20;;;;;;;;;;5015971;28;20030;-71
2021/11/26 08:09:51;;;;;;;24.75;12.10;;;;;;;;;;5019540;28;20052;-73
2021/11/26 08:12:17;;;;;;;22.90;12.25;;;;;;;;;;5022538;28;20499;-72
2021/11/26 08:14:43;;;;;;;18.23;11.60;;;;;;;;;;5019290;28;20080;-73
2021/11/26 08:17:09;;;;;;;20.52;11.02;;;;;;;;;;5017444;28;20034;-77
2021/11/26 08:19:35;;;;;;;21.02;11.93;;;;;;;;;;5024491;28;20022;-75
2021/11/26 08:22:01;;;;;;;21.27;11.48;;;;;;;;;;5027073;28;20060;-75
2021/11/26 08:24:27;;;;;;;19.17;11.93;;;;;;;;;;5032786;28;20029;-76
2021/11/26 08:26:54;;;;;;;25.38;11.65;;;;;;;;;;5032043;28;20052;-72
2021/11/26 08:29:21;;;;;;;19.30;12.57;;;;;;;;;;5031719;28;20486;-73
2021/11/26 08:31:47;;;;;;;20.33;12.65;;;;;;;;;;5031453;28;20040;-71
2021/11/26 08:34:13;;;;;;;20.25;12.55;;;;;;;;;;5033301;28;20109;-72
2021/11/26 08:36:40;;;;;;;22.95;12.10;;;;;;;;;;5033416;28;20159;-70
2021/11/26 08:39:07;;;;;;;22.20;13.40;;;;;;;;;;5032842;28;20030;-72
2021/11/26 08:41:33;;;;;;;20.75;11.45;;;;;;;;;;5032888;28;20022;-71
2021/11/26 08:44:00;;;;;;;23.63;12.93;;;;;;;;;;5032546;28;20529;-71
2021/11/26 08:46:26;;;;;;;24.90;14.05;;;;;;;;;;5031360;28;20296;-72
2021/11/26 08:48:52;;;;;;;20.02;11.43;;;;;;;;;;5031655;28;20201;-70
2021/11/26 08:51:19;;;;;;;23.90;13.13;;;;;;;;;;5032499;28;20083;-70
2021/11/26 08:53:46;;;;;;;24.33;14.27;;;;;;;;;;5031743;28;20021;-70
2021/11/26 08:56:13;;;;;;;20.92;12.10;;;;;;;;;;5032611;28;20021;-69
2021/11/26 08:58:40;;;;;;;21.10;12.38;;;;;;;;;;5030793;28;20033;-68
2021/11/26 09:01:07;;;;;;;17.40;12.57;;;;;;;;;;5032445;28;20053;-70
2021/11/26 09:03:33;;;;;;;19.17;12.25;;;;;;;;;;5031621;28;20364;-71
2021/11/26 09:05:59;;;;;;;21.50;12.07;;;;;;;;;;5032318;28;20029;-69
2021/11/26 09:08:26;;;;;;;21.77;12.85;;;;;;;;;;5031226;28;20491;-70
2021/11/26 09:10:53;;;;;;;17.95;11.63;;;;;;;;;;5032289;28;20033;-71
2021/11/26 09:13:19;;;;;;;20.17;11.70;;;;;;;;;;5030534;28;20021;-70
2021/11/26 09:15:45;;;;;;;18.92;12.23;;;;;;;;;;5032168;28;20029;-70
2021/11/26 09:18:12;;;;;;;19.77;11.63;;;;;;;;;;5032147;28;20018;-72
2021/11/26 09:20:39;;;;;;;19.95;12.15;;;;;;;;;;5027245;28;20715;-68
2021/11/26 09:23:06;;;;;;;19.25;12.00;;;;;;;;;;5029108;28;20030;-70
2021/11/26 09:25:32;;;;;;;18.83;11.50;;;;;;;;;;5032100;28;20026;-69
2021/11/26 09:27:58;;;;;;;18.17;10.25;;;;;;;;;;5031780;28;20017;-71
2021/11/26 09:30:26;;;;;;;18.75;11.77;;;;;;;;;;5031373;28;20044;-70
2021/11/26 09:32:53;;;;;;;17.55;10.57;;;;;;;;;;5031692;28;20103;-70
2021/11/26 09:35:20;;;;;;;17.70;10.00;;;;;;;;;;5031773;28;20527;-70
2021/11/26 09:37:46;;;;;;;20.13;10.55;;;;;;;;;;5032046;28;20664;-70
2021/11/26 09:40:12;;;;;;;15.80;10.45;;;;;;;;;;5031724;28;20026;-69
2021/11/26 09:42:42;;;;;;;17.45;10.20;;;;;;;;;;5055913;22;20091;-66
2021/11/26 09:45:10;;;;;;;17.17;10.57;;;;;;;;;;5030302;28;20136;-68
2021/11/26 09:47:36;;;;;;;16.63;10.32;;;;;;;;;;5030189;28;20529;-68
2021/11/26 09:50:03;;;;;;;22.95;11.30;;;;;;;;;;5031398;28;20029;-68
2021/11/26 09:52:29;;;;;;;26.13;11.98;;;;;;;;;;5031393;28;20033;-67
2021/11/26 09:54:55;;;;;;;18.65;10.38;;;;;;;;;;5031100;28;20549;-67
2021/11/26 09:57:21;;;;;;;21.85;10.55;;;;;;;;;;5031528;28;20152;-67
2021/11/26 09:59:47;;;;;;;18.63;10.48;;;;;;;;;;5031130;28;20035;-67
2021/11/26 10:02:15;;;;;;;19.00;10.80;;;;;;;;;;5021841;28;20028;-68
2021/11/26 10:04:41;;;;;;;18.52;10.25;;;;;;;;;;5030183;28;20072;-68
2021/11/26 10:07:08;;;;;;;20.48;10.80;;;;;;;;;;5031105;28;20036;-66
2021/11/26 10:09:35;;;;;;;21.23;10.73;;;;;;;;;;5031146;28;20057;-67
2021/11/26 10:12:06;;;;;;;20.33;10.80;;;;;;;;;;5031626;28;20443;-67
2021/11/26 10:14:37;;;;;;;15.40;9.13;;;;;;;;;;5031211;28;20048;-67
2021/11/26 10:17:12;;;;;;;17.23;9.25;;;;;;;;;;5031465;28;20030;-67
2021/11/26 10:19:38;;;;;;;16.20;8.10;;;;;;;;;;5031234;28;20108;-68
2021/11/26 10:22:25;;;;;;;13.38;8.13;;;;;;;;;;5029819;28;20063;-68
2021/11/26 10:25:00;;;;;;;15.00;8.65;;;;;;;;;;5030936;28;20033;-69
2021/11/26 10:27:33;;;;;;;17.77;9.05;;;;;;;;;;5041896;28;20051;-68
2021/11/26 10:30:08;;;;;;;18.48;9.23;;;;;;;;;;5040461;28;20107;-69
2021/11/26 10:32:34;;;;;;;18.23;8.85;;;;;;;;;;5040581;28;20037;-68
2021/11/26 10:35:00;;;;;;;13.32;7.82;;;;;;;;;;5047439;28;20021;-68
2021/11/26 10:37:27;;;;;;;13.93;7.63;;;;;;;;;;5035085;28;20390;-68
2021/11/26 10:39:54;;;;;;;10.48;6.82;;;;;;;;;;5034774;28;20033;-68
2021/11/26 10:42:28;;;;;;;9.90;6.80;;;;;;;;;;5021159;28;20030;-68
2021/11/26 10:44:56;;;;;;;15.40;6.40;;;;;;;;;;5014988;28;20084;-67
2021/11/26 10:47:36;;;;;;;11.18;7.70;;;;;;;;;;5013998;28;20407;-67
2021/11/26 10:50:21;;;;;;;13.20;7.13;;;;;;;;;;5015126;28;20029;-67
2021/11/26 11:01:08;;;;;;;17.27;7.65;;;;;;;;;;5034191;28;20044;-68
2021/11/26 11:03:35;;;;;;;13.82;7.05;;;;;;;;;;5033928;28;20018;-67
2021/11/26 11:06:01;;;;;;;10.35;6.63;;;;;;;;;;5034366;28;20066;-67
2021/11/26 11:08:27;;;;;;;12.85;6.90;;;;;;;;;;5034261;28;20030;-67
2021/11/26 11:10:54;;;;;;;12.18;6.57;;;;;;;;;;5033149;28;20028;-68
2021/11/26 11:13:30;;;;;;;19.48;6.07;;;;;;;;;;5034350;28;20728;-68
2021/11/26 11:16:07;;;;;;;10.98;6.00;;;;;;;;;;5034510;28;20021;-68
2021/11/26 11:18:33;;;;;;;9.77;6.00;;;;;;;;;;5034207;28;20021;-69
2021/11/26 11:21:00;;;;;;;9.80;5.60;;;;;;;;;;5034415;28;20025;-68
2021/11/26 11:23:26;;;;;;;9.55;5.50;;;;;;;;;;5034090;28;20052;-67
2021/11/26 11:25:52;;;;;;;10.32;5.38;;;;;;;;;;5034247;28;20108;-68
2021/11/26 11:28:18;;;;;;;14.13;6.88;;;;;;;;;;5034218;28;20121;-68
2021/11/26 11:30:44;;;;;;;10.23;4.43;;;;;;;;;;5032646;28;20064;-68
2021/11/26 11:33:12;;;;;;;6.90;4.88;;;;;;;;;;5033185;28;20029;-67
2021/11/26 11:35:38;;;;;;;11.55;4.68;;;;;;;;;;5033905;28;20064;-67
2021/11/26 11:38:05;;;;;;;6.78;4.75;;;;;;;;;;5033759;28;20028;-67
2021/11/26 11:40:31;;;;;;;7.35;4.70;;;;;;;;;;5032663;28;20022;-68
2021/11/26 11:43:14;;;;;;;7.95;4.43;;;;;;;;;;5033545;28;20029;-68
2021/11/26 11:45:42;;;;;;;7.30;3.80;;;;;;;;;;5034001;28;20079;-68
2021/11/26 11:48:09;;;;;;;6.55;4.35;;;;;;;;;;5033935;28;20060;-68
2021/11/26 11:50:43;;;;;;;7.00;3.88;;;;;;;;;;5026833;28;20022;-68
2021/11/26 11:53:20;;;;;;;7.75;3.70;;;;;;;;;;5013435;28;20030;-67
2021/11/26 11:55:47;;;;;;;10.13;3.95;;;;;;;;;;5026673;28;20022;-67
2021/11/26 11:58:13;;;;;;;6.53;4.07;;;;;;;;;;5033288;28;20025;-68
2021/11/26 12:00:40;;;;;;;6.90;3.95;;;;;;;;;;5033706;28;20022;-67
2021/11/26 12:03:07;;;;;;;7.55;3.40;;;;;;;;;;5032733;28;20402;-68
2021/11/26 12:05:35;;;;;;;5.15;2.90;;;;;;;;;;5033362;28;20100;-67
2021/11/26 12:08:08;;;;;;;7.20;3.63;;;;;;;;;;5033303;28;20515;-68
2021/11/26 12:10:53;;;;;;;5.55;2.72;;;;;;;;;;5033221;28;20697;-69
2021/11/26 12:13:19;;;;;;;5.85;3.25;;;;;;;;;;5032961;28;20057;-68
2021/11/26 12:15:45;;;;;;;7.13;3.47;;;;;;;;;;5033429;28;20030;-69
2021/11/26 12:18:11;;;;;;;5.85;2.95;;;;;;;;;;5033194;28;20026;-68
2021/11/26 12:20:39;;;;;;;5.97;3.05;;;;;;;;;;5033477;28;20017;-67
2021/11/26 12:23:18;;;;;;;5.55;2.95;;;;;;;;;;5032701;28;20088;-68
2021/11/26 12:26:03;;;;;;;5.20;3.33;;;;;;;;;;5012254;28;20116;-67
2021/11/26 12:28:38;;;;;;;4.65;3.17;;;;;;;;;;5011321;28;20030;-67
2021/11/26 12:31:06;;;;;;;5.05;3.03;;;;;;;;;;5012074;28;20033;-67
2021/11/26 12:33:32;;;;;;;6.18;3.72;;;;;;;;;;5012697;28;20018;-68
2021/11/26 12:36:00;;;;;;;6.28;3.08;;;;;;;;;;5013321;28;20030;-68
2021/11/26 12:38:35;;;;;;;4.93;3.05;;;;;;;;;;5013222;28;20022;-67
2021/11/26 12:41:01;;;;;;;4.93;3.00;;;;;;;;;;5012901;28;20026;-68
2021/11/26 12:43:38;;;;;;;4.50;2.85;;;;;;;;;;5012907;28;20038;-68
2021/11/26 12:46:03;;;;;;;4.80;2.60;;;;;;;;;;5028766;28;20057;-68
2021/11/26 12:48:34;;;;;;;5.35;2.85;;;;;;;;;;5032477;28;20068;-68
2021/11/26 12:51:04;;;;;;;7.90;3.58;;;;;;;;;;5031253;28;20398;-67
2021/11/26 12:53:31;;;;;;;7.15;3.40;;;;;;;;;;5032274;28;20499;-67
2021/11/26 12:56:05;;;;;;;6.82;3.60;;;;;;;;;;5032273;28;20033;-68
2021/11/26 12:58:32;;;;;;;6.97;3.72;;;;;;;;;;5012904;28;20026;-67
2021/11/26 13:00:59;;;;;;;6.97;3.53;;;;;;;;;;5011713;28;20164;-67
2021/11/26 13:03:26;;;;;;;6.60;2.88;;;;;;;;;;5024039;28;20037;-67
2021/11/26 13:05:56;;;;;;;5.88;2.90;;;;;;;;;;5032177;28;20025;-70
2021/11/26 13:08:23;;;;;;;7.30;3.85;;;;;;;;;;5032284;28;20036;-68
2021/11/26 13:10:49;;;;;;;7.93;3.30;;;;;;;;;;5032313;28;20021;-68
2021/11/26 13:13:16;;;;;;;10.43;4.30;;;;;;;;;;5031954;28;20152;-68
2021/11/26 13:15:43;;;;;;;6.35;3.70;;;;;;;;;;5027065;28;20030;-68
2021/11/26 13:18:11;;;;;;;8.40;3.97;;;;;;;;;;5012355;28;20093;-69
2021/11/26 13:20:42;;;;;;;6.10;3.42;;;;;;;;;;5023719;28;20017;-67
2021/11/26 13:23:13;;;;;;;8.18;4.55;;;;;;;;;;5032159;28;20022;-67
2021/11/26 13:25:44;;;;;;;6.45;4.38;;;;;;;;;;5030624;28;20677;-67
2021/11/26 13:28:12;;;;;;;19.45;5.15;;;;;;;;;;5031142;28;20483;-67
2021/11/26 13:30:41;;;;;;;8.23;4.72;;;;;;;;;;5032032;28;20477;-67
2021/11/26 13:33:07;;;;;;;9.57;5.55;;;;;;;;;;5031618;28;20479;-67
2021/11/26 13:35:34;;;;;;;10.52;5.20;;;;;;;;;;5034370;28;20120;-67
2021/11/26 13:38:02;;;;;;;7.75;5.45;;;;;;;;;;5042858;28;20041;-67
2021/11/26 13:40:38;;;;;;;8.43;5.60;;;;;;;;;;5031585;28;20102;-67
2021/11/26 13:43:04;;;;;;;9.55;5.35;;;;;;;;;;5031273;28;20041;-67
2021/11/26 13:45:31;;;;;;;9.05;5.50;;;;;;;;;;5039833;28;20025;-67
2021/11/26 13:47:57;;;;;;;8.55;5.47;;;;;;;;;;5049343;28;20106;-67
2021/11/26 13:50:23;;;;;;;14.85;5.70;;;;;;;;;;5050024;28;20488;-67
2021/11/26 13:52:51;;;;;;;8.82;5.32;;;;;;;;;;5031541;28;20049;-67
2021/11/26 13:55:17;;;;;;;8.82;5.22;;;;;;;;;;5031008;28;20445;-67
2021/11/26 13:57:43;;;;;;;6.22;4.03;;;;;;;;;;5031126;28;20022;-67
2021/11/26 14:00:10;;;;;;;9.75;4.68;;;;;;;;;;5031009;28;20087;-68
2021/11/26 14:02:51;;;;;;;10.45;3.72;;;;;;;;;;5030120;28;20025;-68
2021/11/26 14:05:31;;;;;;;6.68;3.53;;;;;;;;;;5031085;28;20417;-68
2021/11/26 14:08:04;;;;;;;5.78;3.42;;;;;;;;;;5029997;28;20036;-68
2021/11/26 14:10:30;;;;;;;6.28;3.78;;;;;;;;;;5031105;28;20034;-68
2021/11/26 14:12:57;;;;;;;8.80;3.83;;;;;;;;;;5030695;28;20117;-67
2021/11/26 14:15:23;;;;;;;5.13;3.22;;;;;;;;;;5030610;28;20014;-68
2021/11/26 14:17:49;;;;;;;4.28;2.58;;;;;;;;;;5035050;28;20017;-68
2021/11/26 14:20:23;;;;;;;5.70;3.10;;;;;;;;;;5035396;28;20529;-68
2021/11/26 14:22:49;;;;;;;3.20;2.45;;;;;;;;;;5035140;28;20032;-67
2021/11/26 14:25:16;;;;;;;5.78;2.95;;;;;;;;;;5035091;28;20033;-67
2021/11/26 14:27:42;;;;;;;5.68;2.22;;;;;;;;;;5035218;28;20601;-67
2021/11/26 14:30:13;;;;;;;6.10;2.80;;;;;;;;;;5035034;28;20065;-67
2021/11/26 14:32:39;;;;;;;;;;;;;;;;;;5035679;28;20068;-67